Time;durP1;ratioP1;P1;durP2;ratioP2;P2;SDS_P1;SDS_P2;PMS_P1;PMS_P2;Temp;Humidity;BMP_temperature;BMP_pressure;BME280_temperature;BME280_humidity;BME280_pressure;Samples;Min_cycle;Max_cycle;Signal;HPM_P1;HPM_P2
2022/10/31 00:01:23;;;;;;;797.30;123.25;;;11.60;99.90;;;;;;6339776;22;20018;-86
2022/10/31 00:03:48;;;;;;;446.92;117.75;;;11.60;99.90;;;;;;6311666;22;19998;-86
2022/10/31 00:06:17;;;;;;;483.45;121.15;;;11.50;99.90;;;;;;6337966;22;20003;-86
2022/10/31 00:08:47;;;;;;;735.85;123.72;;;11.50;99.90;;;;;;6311783;22;20028;-84
2022/10/31 00:11:14;;;;;;;434.10;115.55;;;11.50;99.90;;;;;;6311838;22;20010;-84
2022/10/31 00:13:39;;;;;;;568.72;120.25;;;11.50;99.90;;;;;;6339067;22;20071;-86
2022/10/31 00:16:12;;;;;;;566.47;125.88;;;11.50;99.90;;;;;;6337510;22;20384;-87
2022/10/31 00:18:38;;;;;;;582.40;123.50;;;11.50;99.90;;;;;;6312150;22;19991;-84
2022/10/31 00:21:04;;;;;;;392.70;118.28;;;11.50;99.90;;;;;;6337673;22;20052;-86
2022/10/31 00:23:30;;;;;;;643.60;124.00;;;11.50;99.90;;;;;;6337830;22;20054;-88
2022/10/31 00:26:01;;;;;;;504.00;123.93;;;11.40;99.90;;;;;;6311921;22;19995;-85
2022/10/31 00:28:27;;;;;;;451.83;120.07;;;11.50;99.90;;;;;;6340066;22;20051;-89
2022/10/31 00:30:53;;;;;;;527.38;117.63;;;11.50;99.90;;;;;;6338245;22;20077;-87
2022/10/31 00:33:19;;;;;;;542.13;120.25;;;11.50;99.90;;;;;;6338070;22;19994;-86
2022/10/31 00:35:50;;;;;;;374.20;115.47;;;11.50;99.90;;;;;;6338422;22;19994;-85
2022/10/31 00:38:16;;;;;;;481.20;114.07;;;11.50;99.90;;;;;;6312011;22;20070;-86
2022/10/31 00:40:41;;;;;;;527.17;116.47;;;11.50;99.90;;;;;;6311891;22;20263;-89
2022/10/31 00:43:07;;;;;;;542.88;116.28;;;11.40;99.90;;;;;;6338127;22;20304;-86
2022/10/31 00:45:33;;;;;;;541.95;114.30;;;11.40;99.90;;;;;;6337789;22;20043;-85
2022/10/31 00:47:59;;;;;;;364.00;110.47;;;11.40;99.90;;;;;;6337553;22;19995;-88
2022/10/31 00:50:25;;;;;;;503.67;113.13;;;11.30;99.90;;;;;;6311738;22;20006;-86
2022/10/31 00:52:50;;;;;;;561.95;108.85;;;11.30;99.90;;;;;;6337817;22;20416;-84
2022/10/31 00:55:16;;;;;;;514.70;109.57;;;11.30;99.90;;;;;;6338312;22;20025;-85
2022/10/31 00:57:42;;;;;;;338.85;104.97;;;11.30;99.90;;;;;;6338093;22;19999;-86
2022/10/31 01:00:08;;;;;;;478.83;110.63;;;11.30;99.90;;;;;;6338079;22;20483;-85
2022/10/31 01:02:34;;;;;;;407.85;109.05;;;11.30;99.90;;;;;;6311651;22;19991;-84
2022/10/31 01:05:00;;;;;;;583.28;114.38;;;11.30;99.90;;;;;;6337947;22;19995;-85
2022/10/31 01:07:25;;;;;;;753.13;121.85;;;11.30;99.90;;;;;;6338118;22;19998;-86
2022/10/31 01:09:51;;;;;;;443.23;112.30;;;11.40;99.90;;;;;;6337627;22;20431;-84
2022/10/31 01:12:17;;;;;;;488.13;113.72;;;11.30;99.90;;;;;;6337147;22;20029;-87
2022/10/31 01:14:44;;;;;;;655.60;117.32;;;11.40;99.90;;;;;;6337170;22;20086;-84
2022/10/31 01:17:11;;;;;;;558.97;120.43;;;11.30;99.90;;;;;;6311009;22;20003;-85
2022/10/31 01:19:36;;;;;;;577.75;121.80;;;11.30;99.90;;;;;;6311290;22;19995;-85
2022/10/31 01:22:02;;;;;;;586.08;121.15;;;11.40;99.90;;;;;;6337218;22;20002;-85
2022/10/31 01:24:28;;;;;;;566.92;121.22;;;11.30;99.90;;;;;;6339266;22;20077;-84
2022/10/31 01:26:53;;;;;;;400.65;113.70;;;11.30;99.90;;;;;;6339427;22;20365;-84
2022/10/31 01:29:19;;;;;;;639.72;121.70;;;11.30;99.90;;;;;;6338959;22;19998;-86
2022/10/31 01:31:45;;;;;;;692.50;122.50;;;11.30;99.90;;;;;;6313501;22;19991;-84
2022/10/31 01:34:16;;;;;;;475.35;115.18;;;11.20;99.90;;;;;;6339259;22;20036;-87
2022/10/31 01:36:42;;;;;;;568.88;117.32;;;11.20;99.90;;;;;;6313024;22;19999;-87
2022/10/31 01:39:12;;;;;;;430.08;111.03;;;11.20;99.90;;;;;;6313432;22;20002;-87
2022/10/31 01:41:44;;;;;;;619.28;126.13;;;11.30;99.90;;;;;;6313149;22;19995;-85
2022/10/31 01:44:13;;;;;;;718.88;132.65;;;11.20;99.90;;;;;;6313342;22;20052;-86
2022/10/31 01:47:07;;;;;;;854.33;143.18;;;11.20;99.90;;;;;;6313327;22;20363;-84
2022/10/31 01:49:50;;;;;;;682.55;137.02;;;11.20;99.90;;;;;;6324278;22;20059;-87
2022/10/31 01:52:58;;;;;;;547.67;126.38;;;11.20;99.90;;;;;;6313434;22;20049;-85
2022/10/31 01:55:39;;;;;;;455.98;121.85;;;11.20;99.90;;;;;;6189457;23;20000;-86
2022/10/31 01:58:13;;;;;;;450.60;115.35;;;11.30;99.90;;;;;;6214433;23;20009;-84
2022/10/31 02:00:41;;;;;;;488.38;114.30;;;11.30;99.90;;;;;;6214628;23;20410;-86
2022/10/31 02:03:07;;;;;;;594.72;114.03;;;11.30;99.90;;;;;;6214520;23;20001;-85
2022/10/31 02:05:34;;;;;;;588.78;112.88;;;11.30;99.90;;;;;;6214366;23;20023;-86
2022/10/31 02:08:02;;;;;;;383.63;99.45;;;11.30;99.90;;;;;;6214244;23;20008;-89
2022/10/31 02:10:31;;;;;;;464.42;106.15;;;11.30;99.90;;;;;;6214602;23;20008;-86
2022/10/31 02:12:59;;;;;;;409.88;105.55;;;11.30;99.90;;;;;;6213767;23;20326;-87
2022/10/31 02:15:25;;;;;;;401.73;104.20;;;11.30;99.90;;;;;;6213977;23;20084;-87
2022/10/31 02:17:51;;;;;;;522.95;106.20;;;11.30;99.90;;;;;;6214098;23;20055;-84
2022/10/31 02:20:23;;;;;;;629.13;109.90;;;11.20;99.90;;;;;;6214589;23;20079;-84
2022/10/31 02:23:07;;;;;;;371.05;101.88;;;11.20;99.90;;;;;;6213988;23;20001;-87
2022/10/31 02:25:42;;;;;;;311.23;97.95;;;11.20;99.90;;;;;;6247270;22;20003;-85
2022/10/31 02:28:08;;;;;;;446.85;104.20;;;11.10;99.90;;;;;;6340129;22;19991;-84
2022/10/31 02:31:18;;;;;;;645.03;110.88;;;11.20;99.90;;;;;;6312425;22;20003;-86
2022/10/31 02:33:53;;;;;;;575.28;104.18;;;11.20;99.90;;;;;;6312231;22;19998;-85
2022/10/31 02:36:31;;;;;;;487.20;102.82;;;11.20;99.90;;;;;;6312829;22;19994;-87
2022/10/31 02:39:26;;;;;;;367.35;97.60;;;11.20;99.90;;;;;;6312651;22;19995;-87
2022/10/31 02:42:25;;;;;;;346.65;98.15;;;11.20;99.90;;;;;;6340474;22;20480;-86
2022/10/31 02:45:09;;;;;;;462.33;102.82;;;11.20;99.90;;;;;;6340386;22;19995;-85
2022/10/31 02:47:38;;;;;;;567.78;105.38;;;11.20;99.90;;;;;;6312373;22;19995;-87
2022/10/31 02:50:20;;;;;;;406.95;101.70;;;11.20;99.90;;;;;;6339903;22;20423;-84
2022/10/31 02:52:51;;;;;;;492.23;103.07;;;11.20;99.90;;;;;;6312552;22;19991;-86
2022/10/31 02:55:26;;;;;;;377.30;96.07;;;11.20;99.90;;;;;;6312719;22;20002;-83
2022/10/31 02:57:56;;;;;;;336.45;94.07;;;11.20;99.90;;;;;;6312370;22;20007;-85
2022/10/31 03:00:23;;;;;;;488.60;101.72;;;11.10;99.90;;;;;;6312205;22;20002;-84
2022/10/31 03:03:15;;;;;;;625.40;106.80;;;11.10;99.90;;;;;;6338678;22;20022;-86
2022/10/31 03:06:02;;;;;;;639.05;106.70;;;11.10;99.90;;;;;;6312558;22;20081;-85
2022/10/31 03:08:46;;;;;;;523.92;102.25;;;11.10;99.90;;;;;;6312378;22;20089;-87
2022/10/31 03:11:12;;;;;;;438.50;101.47;;;11.10;99.90;;;;;;6312365;22;20005;-87
2022/10/31 03:13:47;;;;;;;455.60;103.32;;;11.10;99.90;;;;;;6338721;22;20081;-90
2022/10/31 03:16:33;;;;;;;546.22;104.95;;;11.10;99.90;;;;;;6339813;22;20011;-88
2022/10/31 03:19:06;;;;;;;767.95;108.78;;;11.10;99.90;;;;;;6312375;22;20084;-84
2022/10/31 03:21:44;;;;;;;381.52;97.60;;;11.00;99.90;;;;;;6312546;22;20020;-86
2022/10/31 03:24:11;;;;;;;393.02;101.10;;;11.00;99.90;;;;;;6312469;22;20082;-83
2022/10/31 03:26:41;;;;;;;334.58;93.35;;;11.00;99.90;;;;;;6339882;22;20022;-84
2022/10/31 03:29:11;;;;;;;444.35;95.57;;;11.10;99.90;;;;;;6312086;22;20403;-88
2022/10/31 03:31:49;;;;;;;322.40;91.75;;;11.00;99.90;;;;;;6340437;22;20089;-85
2022/10/31 03:34:17;;;;;;;410.90;93.47;;;11.00;99.90;;;;;;6311912;22;19995;-84
2022/10/31 03:36:45;;;;;;;327.60;88.45;;;11.00;99.90;;;;;;6311996;22;20085;-86
2022/10/31 03:39:14;;;;;;;391.83;93.00;;;10.90;99.90;;;;;;6312270;22;20393;-86
2022/10/31 03:41:44;;;;;;;397.13;93.30;;;10.90;99.90;;;;;;6312091;22;20003;-86
2022/10/31 03:44:16;;;;;;;309.05;88.22;;;10.90;99.90;;;;;;6339560;22;20044;-86
2022/10/31 03:46:43;;;;;;;386.23;91.50;;;10.90;99.90;;;;;;6311724;22;20064;-85
2022/10/31 03:49:09;;;;;;;288.08;85.78;;;10.90;99.90;;;;;;6339643;22;20412;-85
2022/10/31 03:52:02;;;;;;;354.35;90.10;;;10.80;99.90;;;;;;6312482;22;20353;-87
2022/10/31 03:54:53;;;;;;;540.58;94.63;;;10.80;99.90;;;;;;6312306;22;19995;-88
2022/10/31 03:57:26;;;;;;;276.90;85.60;;;10.80;99.90;;;;;;6339916;22;19999;-85
2022/10/31 03:59:58;;;;;;;440.65;87.40;;;10.80;99.90;;;;;;6340580;22;20044;-88
2022/10/31 04:02:30;;;;;;;447.20;92.15;;;10.80;99.90;;;;;;6312255;22;20022;-85
2022/10/31 04:04:57;;;;;;;297.17;84.63;;;10.80;99.90;;;;;;6311690;22;20030;-87
2022/10/31 04:07:28;;;;;;;313.65;87.57;;;10.80;99.90;;;;;;6311391;22;19999;-87
2022/10/31 04:09:57;;;;;;;284.75;87.70;;;10.70;99.90;;;;;;6311785;22;20003;-85
2022/10/31 04:12:25;;;;;;;255.40;86.15;;;10.70;99.90;;;;;;6311643;22;20005;-84
2022/10/31 04:14:52;;;;;;;345.67;87.53;;;10.70;99.90;;;;;;6311556;22;19995;-86
2022/10/31 04:17:23;;;;;;;327.42;88.97;;;10.70;99.90;;;;;;6339265;22;19999;-84
2022/10/31 04:19:48;;;;;;;362.52;88.95;;;10.70;99.90;;;;;;6311573;22;20303;-89
2022/10/31 04:22:14;;;;;;;317.20;96.70;;;10.70;99.90;;;;;;6339331;22;20420;-86
2022/10/31 04:24:40;;;;;;;508.83;116.80;;;10.70;99.90;;;;;;6337728;22;20078;-84
2022/10/31 04:27:06;;;;;;;642.92;124.78;;;10.70;99.90;;;;;;6338978;22;20353;-88
2022/10/31 04:29:32;;;;;;;382.65;98.57;;;10.60;99.90;;;;;;6337631;22;20078;-85
2022/10/31 04:31:58;;;;;;;291.85;91.43;;;10.60;99.90;;;;;;6337114;22;20064;-86
2022/10/31 04:34:24;;;;;;;334.20;95.30;;;10.60;99.90;;;;;;6337832;22;20005;-86
2022/10/31 04:36:49;;;;;;;503.02;103.78;;;10.60;99.90;;;;;;6337313;22;20005;-85
2022/10/31 04:39:15;;;;;;;429.42;105.38;;;10.60;99.90;;;;;;6337672;22;19998;-85
2022/10/31 04:41:41;;;;;;;273.67;94.97;;;10.60;99.90;;;;;;6339423;22;20400;-85
2022/10/31 04:44:07;;;;;;;276.30;95.13;;;10.60;99.90;;;;;;6337737;22;20033;-86
2022/10/31 04:46:32;;;;;;;372.65;100.15;;;10.60;99.90;;;;;;6311265;22;19998;-85
2022/10/31 04:48:58;;;;;;;291.08;93.63;;;10.60;99.90;;;;;;6339222;22;20030;-87
2022/10/31 04:51:24;;;;;;;279.70;98.13;;;10.60;99.90;;;;;;6337223;22;20442;-86
2022/10/31 04:53:50;;;;;;;452.15;97.68;;;10.60;99.90;;;;;;6337741;22;20034;-84
2022/10/31 04:56:15;;;;;;;267.52;94.32;;;10.60;99.90;;;;;;6337885;22;20002;-84
2022/10/31 04:58:41;;;;;;;323.77;98.60;;;10.60;99.90;;;;;;6338899;22;19998;-84
2022/10/31 05:01:07;;;;;;;348.60;96.97;;;10.60;99.90;;;;;;6341563;22;19998;-86
2022/10/31 05:03:33;;;;;;;301.55;96.28;;;10.60;99.90;;;;;;6340100;22;19995;-84
2022/10/31 05:05:58;;;;;;;283.40;91.75;;;10.60;99.90;;;;;;6339819;22;20353;-88
2022/10/31 05:08:24;;;;;;;267.05;91.13;;;10.60;99.90;;;;;;6340274;22;20006;-86
2022/10/31 05:10:50;;;;;;;337.42;90.97;;;10.60;99.90;;;;;;6339921;22;20002;-85
2022/10/31 05:13:16;;;;;;;310.88;90.63;;;10.60;99.90;;;;;;6339806;22;19991;-86
2022/10/31 05:15:41;;;;;;;316.10;93.97;;;10.60;99.90;;;;;;6341549;22;20078;-87
2022/10/31 05:18:07;;;;;;;345.55;89.78;;;10.60;99.90;;;;;;6339757;22;19999;-85
2022/10/31 05:20:33;;;;;;;267.95;87.80;;;10.70;99.90;;;;;;6313998;22;20004;-86
2022/10/31 05:22:59;;;;;;;264.35;89.25;;;10.70;99.90;;;;;;6339024;22;20055;-85
2022/10/31 05:25:28;;;;;;;286.20;92.05;;;10.70;99.90;;;;;;6339370;22;19998;-87
2022/10/31 05:27:54;;;;;;;262.13;90.72;;;10.70;99.90;;;;;;6340746;22;20002;-84
2022/10/31 05:30:23;;;;;;;348.15;92.60;;;10.70;99.90;;;;;;6313431;22;20006;-85
2022/10/31 05:32:50;;;;;;;389.15;97.75;;;10.70;99.90;;;;;;6340472;22;19987;-88
2022/10/31 05:35:24;;;;;;;327.00;92.97;;;10.70;99.90;;;;;;6312818;22;19999;-87
2022/10/31 05:37:50;;;;;;;392.52;95.88;;;10.70;99.90;;;;;;6313028;22;20280;-86
2022/10/31 05:40:18;;;;;;;426.73;99.78;;;10.70;99.90;;;;;;6339278;22;20020;-86
2022/10/31 05:42:44;;;;;;;455.88;118.18;;;10.70;99.90;;;;;;6313128;22;20025;-86
2022/10/31 05:45:13;;;;;;;385.35;99.30;;;10.70;99.90;;;;;;6313003;22;19995;-85
2022/10/31 05:47:39;;;;;;;440.83;106.60;;;10.70;99.90;;;;;;6313189;22;20424;-86
2022/10/31 05:50:05;;;;;;;468.60;118.53;;;10.70;99.90;;;;;;6338315;22;20006;-86
2022/10/31 05:52:31;;;;;;;403.90;107.72;;;10.80;99.90;;;;;;6313079;22;19998;-87
2022/10/31 05:54:57;;;;;;;465.08;109.75;;;10.80;99.90;;;;;;6340296;22;20071;-87
2022/10/31 05:57:23;;;;;;;447.85;94.90;;;10.90;99.90;;;;;;6340777;22;20041;-85
2022/10/31 05:59:52;;;;;;;490.25;98.30;;;10.80;99.90;;;;;;6338802;22;20005;-85
2022/10/31 06:02:19;;;;;;;443.48;94.22;;;10.80;99.90;;;;;;6338757;22;20353;-85
2022/10/31 06:04:44;;;;;;;325.65;85.10;;;10.80;99.90;;;;;;6313041;22;19999;-85
2022/10/31 06:07:10;;;;;;;235.40;86.28;;;10.80;99.90;;;;;;6338631;22;20083;-85
2022/10/31 06:09:36;;;;;;;273.50;82.85;;;10.80;99.90;;;;;;6339581;22;20070;-83
2022/10/31 06:12:02;;;;;;;240.80;80.13;;;10.80;99.90;;;;;;6340398;22;20430;-85
2022/10/31 06:14:27;;;;;;;245.00;86.38;;;10.90;99.90;;;;;;6339946;22;20303;-84
2022/10/31 06:16:55;;;;;;;233.43;79.72;;;10.80;99.90;;;;;;6338350;22;20092;-87
2022/10/31 06:19:20;;;;;;;219.52;80.13;;;10.80;99.90;;;;;;6312659;22;20404;-84
2022/10/31 06:21:46;;;;;;;293.40;84.57;;;10.80;99.90;;;;;;6338837;22;20030;-86
2022/10/31 06:24:12;;;;;;;252.82;86.00;;;10.80;99.90;;;;;;6339864;22;19998;-86
2022/10/31 06:26:38;;;;;;;251.68;87.47;;;10.90;99.90;;;;;;6338717;22;20027;-85
2022/10/31 06:29:03;;;;;;;274.58;77.70;;;10.90;99.90;;;;;;6338304;22;20161;-85
2022/10/31 06:31:29;;;;;;;182.93;73.30;;;10.90;99.90;;;;;;6338309;22;20006;-87
2022/10/31 06:33:55;;;;;;;190.15;74.72;;;10.90;99.90;;;;;;6338614;22;19999;-83
2022/10/31 06:36:21;;;;;;;191.98;78.15;;;10.90;99.90;;;;;;6340180;22;20302;-83
2022/10/31 06:38:46;;;;;;;272.10;91.00;;;10.90;99.90;;;;;;6338525;22;19998;-82
2022/10/31 06:41:12;;;;;;;265.35;92.47;;;10.90;99.90;;;;;;6340551;22;19995;-84
2022/10/31 06:43:38;;;;;;;270.98;94.45;;;10.90;99.90;;;;;;6340145;22;20023;-84
2022/10/31 06:46:05;;;;;;;345.08;103.55;;;10.90;99.90;;;;;;6338458;22;20425;-85
2022/10/31 06:48:31;;;;;;;283.65;100.53;;;10.90;99.90;;;;;;6339940;22;19995;-83
2022/10/31 06:51:00;;;;;;;321.70;107.93;;;10.90;99.90;;;;;;6312093;22;20005;-85
2022/10/31 06:53:29;;;;;;;333.05;118.10;;;10.90;99.90;;;;;;6338366;22;19995;-86
2022/10/31 06:55:55;;;;;;;376.10;118.13;;;11.00;99.90;;;;;;6340050;22;20006;-84
2022/10/31 06:58:21;;;;;;;393.25;127.32;;;11.00;99.90;;;;;;6311926;22;20021;-85
2022/10/31 07:00:47;;;;;;;401.98;133.70;;;11.00;99.90;;;;;;6312442;22;20415;-85
2022/10/31 07:03:15;;;;;;;365.27;124.38;;;11.00;99.90;;;;;;6338472;22;19995;-82
2022/10/31 07:05:41;;;;;;;313.13;93.15;;;11.00;99.90;;;;;;6312072;22;19999;-84
2022/10/31 07:08:10;;;;;;;294.15;94.15;;;10.90;99.90;;;;;;6339530;22;19991;-83
2022/10/31 07:10:37;;;;;;;368.58;122.15;;;10.90;99.90;;;;;;6339744;22;19995;-83
2022/10/31 07:13:05;;;;;;;337.45;121.00;;;10.90;99.90;;;;;;6311729;22;19999;-83
2022/10/31 07:15:35;;;;;;;384.75;125.03;;;10.90;99.90;;;;;;6339814;22;20003;-83
2022/10/31 07:18:02;;;;;;;396.20;99.45;;;10.90;99.90;;;;;;6312276;22;20427;-82
2022/10/31 07:20:29;;;;;;;259.83;97.00;;;10.90;99.90;;;;;;6311609;22;20011;-84
2022/10/31 07:22:55;;;;;;;222.55;87.18;;;10.90;99.90;;;;;;6339007;22;20044;-85
2022/10/31 07:25:22;;;;;;;241.52;80.93;;;11.00;99.90;;;;;;6338365;22;20002;-87
2022/10/31 07:27:47;;;;;;;213.25;82.22;;;11.00;99.90;;;;;;6338874;22;19997;-86
2022/10/31 07:30:14;;;;;;;224.50;87.95;;;11.00;99.90;;;;;;6339416;22;19999;-86
2022/10/31 07:32:51;;;;;;;178.07;78.25;;;11.00;99.90;;;;;;6340090;22;19999;-85
2022/10/31 07:35:30;;;;;;;173.80;77.63;;;11.10;99.90;;;;;;6341849;22;19987;-84
2022/10/31 07:37:56;;;;;;;220.30;90.25;;;11.10;99.90;;;;;;6339381;22;19995;-86
2022/10/31 07:40:23;;;;;;;201.00;80.78;;;11.20;99.90;;;;;;6338515;22;20044;-82
2022/10/31 07:42:51;;;;;;;176.85;81.65;;;11.10;99.90;;;;;;6311416;22;20470;-84
2022/10/31 07:45:19;;;;;;;204.48;94.82;;;11.20;99.90;;;;;;6339398;22;20040;-86
2022/10/31 07:47:49;;;;;;;197.18;76.90;;;11.20;99.90;;;;;;6339125;22;20002;-84
2022/10/31 07:50:23;;;;;;;202.40;81.03;;;11.20;99.90;;;;;;6312745;22;20038;-82
2022/10/31 07:53:08;;;;;;;184.77;79.28;;;11.20;99.90;;;;;;6339956;22;19994;-85
2022/10/31 07:55:34;;;;;;;195.65;92.93;;;11.20;99.90;;;;;;6312526;22;20078;-84
2022/10/31 07:58:08;;;;;;;254.18;110.78;;;11.20;99.90;;;;;;6340041;22;20443;-82
2022/10/31 08:00:35;;;;;;;241.55;108.60;;;11.30;99.90;;;;;;6312424;22;20009;-84
2022/10/31 08:03:04;;;;;;;212.43;100.55;;;11.30;99.90;;;;;;6312211;22;20020;-84
2022/10/31 08:05:31;;;;;;;219.23;101.05;;;11.30;99.90;;;;;;6312127;22;20020;-83
2022/10/31 08:07:57;;;;;;;206.93;92.90;;;11.30;99.90;;;;;;6311806;22;20031;-82
2022/10/31 08:10:23;;;;;;;180.45;84.53;;;11.30;99.90;;;;;;6339966;22;20079;-83
2022/10/31 08:12:57;;;;;;;180.18;82.47;;;11.30;99.90;;;;;;6339416;22;19994;-82
2022/10/31 08:15:24;;;;;;;166.48;79.70;;;11.40;99.90;;;;;;6339148;22;20315;-83
2022/10/31 08:17:49;;;;;;;167.30;76.22;;;11.40;99.90;;;;;;6312112;22;19999;-83
2022/10/31 08:20:15;;;;;;;175.52;77.40;;;11.50;99.90;;;;;;6338249;22;19994;-85
2022/10/31 08:22:42;;;;;;;168.65;77.72;;;11.50;99.90;;;;;;6339616;22;20022;-84
2022/10/31 08:25:08;;;;;;;174.48;79.88;;;11.60;99.90;;;;;;6338242;22;19999;-83
2022/10/31 08:27:34;;;;;;;171.02;83.88;;;11.60;99.90;;;;;;6339348;22;20064;-84
2022/10/31 08:30:00;;;;;;;173.20;79.15;;;11.60;99.90;;;;;;6339561;22;19994;-84
2022/10/31 08:32:26;;;;;;;155.95;77.57;;;11.70;99.90;;;;;;6312105;22;19995;-84
2022/10/31 08:34:51;;;;;;;159.75;79.72;;;11.70;99.90;;;;;;6339638;22;19994;-82
2022/10/31 08:37:19;;;;;;;171.75;81.13;;;11.90;99.90;;;;;;6339201;22;20289;-84
2022/10/31 08:39:48;;;;;;;167.40;82.57;;;11.90;99.90;;;;;;6312076;22;19998;-83
2022/10/31 08:42:14;;;;;;;176.55;86.18;;;12.10;99.90;;;;;;6339268;22;20002;-84
2022/10/31 08:44:39;;;;;;;172.05;80.43;;;12.10;99.90;;;;;;6338003;22;20035;-82
2022/10/31 08:47:05;;;;;;;158.27;78.90;;;12.10;99.90;;;;;;6339457;22;20349;-82
2022/10/31 08:49:31;;;;;;;160.63;82.25;;;12.20;99.90;;;;;;6339674;22;19995;-85
2022/10/31 08:51:57;;;;;;;160.13;79.40;;;12.20;99.90;;;;;;6339138;22;20018;-86
2022/10/31 08:54:22;;;;;;;163.88;81.78;;;12.20;99.90;;;;;;6340099;22;20019;-83
2022/10/31 08:56:53;;;;;;;149.80;80.25;;;12.20;99.90;;;;;;6339382;22;19995;-82
2022/10/31 08:59:18;;;;;;;158.70;80.47;;;12.30;99.90;;;;;;6339778;22;19991;-83
2022/10/31 09:01:45;;;;;;;157.15;82.07;;;12.30;99.90;;;;;;6337870;22;19999;-83
2022/10/31 09:04:10;;;;;;;152.82;80.03;;;12.30;99.90;;;;;;6337733;22;19991;-84
2022/10/31 09:06:36;;;;;;;154.63;83.60;;;12.30;99.90;;;;;;6339226;22;19995;-84
2022/10/31 09:09:02;;;;;;;155.70;81.28;;;12.40;99.90;;;;;;6337905;22;20006;-83
2022/10/31 09:11:30;;;;;;;133.15;75.18;;;12.50;99.90;;;;;;6337982;22;20022;-84
2022/10/31 09:13:55;;;;;;;144.40;79.78;;;12.50;99.90;;;;;;6311769;22;19995;-85
2022/10/31 09:16:21;;;;;;;140.65;77.35;;;12.60;99.90;;;;;;6335530;22;20038;-83
2022/10/31 09:18:47;;;;;;;138.73;76.78;;;12.60;99.90;;;;;;6336638;22;20003;-85
2022/10/31 09:21:13;;;;;;;134.73;75.13;;;12.70;99.90;;;;;;6337177;22;20355;-82
2022/10/31 09:23:38;;;;;;;138.30;77.47;;;12.80;99.90;;;;;;6336718;22;19999;-82
2022/10/31 09:26:04;;;;;;;137.70;75.20;;;12.80;99.90;;;;;;6338088;22;20003;-86
2022/10/31 09:28:31;;;;;;;130.68;72.50;;;12.90;99.90;;;;;;6337021;22;20026;-84
2022/10/31 09:30:57;;;;;;;130.10;74.93;;;12.90;99.90;;;;;;6336649;22;19995;-83
2022/10/31 09:33:23;;;;;;;129.45;75.50;;;12.90;99.90;;;;;;6338564;22;20112;-83
2022/10/31 09:35:49;;;;;;;133.73;79.20;;;13.00;99.90;;;;;;6336763;22;20052;-82
2022/10/31 09:38:23;;;;;;;153.40;83.97;;;13.10;99.90;;;;;;6338618;22;20460;-83
2022/10/31 09:41:38;;;;;;;147.43;81.68;;;13.00;99.90;;;;;;6310575;22;20399;-84
2022/10/31 09:44:10;;;;;;;151.20;86.43;;;13.10;99.90;;;;;;6294569;22;20408;-82
2022/10/31 09:47:12;;;;;;;139.27;79.07;;;13.10;99.90;;;;;;6340242;22;19995;-83
2022/10/31 09:49:53;;;;;;;131.02;74.97;;;13.30;99.90;;;;;;6340354;22;20503;-84
2022/10/31 09:52:20;;;;;;;145.93;79.53;;;13.40;99.90;;;;;;6312838;22;20474;-83
2022/10/31 09:54:50;;;;;;;143.63;82.22;;;13.40;99.90;;;;;;6339727;22;19998;-83
2022/10/31 09:57:22;;;;;;;156.18;87.53;;;13.50;99.90;;;;;;6312563;22;20316;-83
2022/10/31 09:59:49;;;;;;;137.38;76.57;;;13.60;99.90;;;;;;6339813;22;20465;-83
2022/10/31 10:02:21;;;;;;;131.38;78.68;;;13.60;99.90;;;;;;6312649;22;20419;-83
2022/10/31 10:04:58;;;;;;;141.75;81.75;;;13.60;99.90;;;;;;6312342;22;20354;-85
2022/10/31 10:07:32;;;;;;;149.48;82.25;;;13.50;99.90;;;;;;6339917;22;19998;-84
2022/10/31 10:10:01;;;;;;;144.90;82.13;;;13.50;99.90;;;;;;6339550;22;20023;-83
2022/10/31 10:13:03;;;;;;;141.48;83.35;;;13.50;99.90;;;;;;6339718;22;20300;-84
2022/10/31 10:15:37;;;;;;;131.32;78.35;;;13.70;99.90;;;;;;6312052;22;20015;-83
2022/10/31 10:18:33;;;;;;;138.32;78.43;;;13.80;99.90;;;;;;6339448;22;20348;-83
2022/10/31 10:21:28;;;;;;;129.60;76.60;;;14.00;99.90;;;;;;6339626;22;20040;-84
2022/10/31 10:24:27;;;;;;;130.93;76.25;;;14.10;99.90;;;;;;6312140;22;20026;-83
2022/10/31 10:27:30;;;;;;;130.50;76.97;;;14.20;99.90;;;;;;6332219;22;20086;-83
2022/10/31 10:30:08;;;;;;;128.50;77.20;;;14.10;99.90;;;;;;6311999;22;20056;-84
2022/10/31 10:32:58;;;;;;;115.30;70.80;;;14.30;99.90;;;;;;6339972;22;20002;-85
2022/10/31 10:35:34;;;;;;;114.60;74.40;;;14.50;99.90;;;;;;6297232;22;20407;-83
2022/10/31 10:38:12;;;;;;;117.63;76.68;;;14.50;99.90;;;;;;6339869;22;19998;-85
2022/10/31 10:40:38;;;;;;;126.40;75.43;;;14.60;99.90;;;;;;6312264;22;19998;-85
2022/10/31 10:43:24;;;;;;;128.98;81.18;;;14.80;99.90;;;;;;6337656;22;20453;-82
2022/10/31 10:49:14;;;;;;;117.72;74.88;;;15.20;99.90;;;;;;6339078;22;20014;-86
2022/10/31 10:52:07;;;;;;;123.70;77.97;;;15.30;99.90;;;;;;6339788;22;20005;-84
2022/10/31 10:54:40;;;;;;;134.75;86.15;;;15.50;99.90;;;;;;6312305;22;20036;-84
2022/10/31 10:57:32;;;;;;;110.13;72.75;;;15.70;99.90;;;;;;6338543;22;20052;-85
2022/10/31 11:00:01;;;;;;;128.27;77.80;;;15.80;99.90;;;;;;6339120;22;19997;-84
2022/10/31 11:02:30;;;;;;;114.97;74.50;;;16.00;99.90;;;;;;6312059;22;20484;-87
2022/10/31 11:04:59;;;;;;;104.53;70.55;;;16.40;99.90;;;;;;6338739;22;19990;-86
2022/10/31 11:07:25;;;;;;;106.63;70.50;;;16.70;99.90;;;;;;6339421;22;20003;-84
2022/10/31 11:10:02;;;;;;;104.82;71.18;;;16.80;99.90;;;;;;6338845;22;20005;-84
2022/10/31 11:12:33;;;;;;;108.47;69.30;;;16.80;99.90;;;;;;6312155;22;20006;-84
2022/10/31 11:15:03;;;;;;;;;;;17.10;99.90;;;;;;6337732;22;20018;-84
2022/10/31 11:17:31;;;;;;;106.25;68.93;;;17.10;99.90;;;;;;6312005;22;19894;-82
2022/10/31 11:20:31;;;;;;;105.95;68.18;;;17.30;99.90;;;;;;6311626;22;20030;-84
2022/10/31 11:23:14;;;;;;;88.68;60.15;;;17.50;99.90;;;;;;6311528;22;20425;-82
2022/10/31 11:25:52;;;;;;;85.03;57.10;;;17.70;99.90;;;;;;6339077;22;20116;-83
2022/10/31 11:28:18;;;;;;;83.57;55.38;;;17.80;99.90;;;;;;6311696;22;20002;-83
2022/10/31 11:30:55;;;;;;;79.97;54.58;;;17.80;99.90;;;;;;6337943;22;20027;-84
2022/10/31 11:33:32;;;;;;;71.40;47.83;;;18.00;99.90;;;;;;6311463;22;20001;-83
2022/10/31 11:35:58;;;;;;;78.40;52.35;;;18.20;99.90;;;;;;6311324;22;19991;-84
2022/10/31 11:38:45;;;;;;;73.25;50.65;;;18.30;99.90;;;;;;6311706;22;20009;-84
2022/10/31 11:41:16;;;;;;;72.97;50.03;;;18.30;99.90;;;;;;6311556;22;20051;-83
2022/10/31 11:43:54;;;;;;;68.22;47.03;;;18.30;99.90;;;;;;6339603;22;20463;-84
2022/10/31 11:46:42;;;;;;;69.97;46.58;;;18.50;99.90;;;;;;6311433;22;20069;-82
2022/10/31 11:49:20;;;;;;;64.55;45.70;;;18.60;99.90;;;;;;6310461;22;20006;-85
2022/10/31 11:51:54;;;;;;;77.30;47.83;;;18.70;99.90;;;;;;6312526;22;19991;-84
2022/10/31 11:54:34;;;;;;;71.45;48.00;;;18.70;99.90;;;;;;6311832;22;19994;-83
2022/10/31 11:57:00;;;;;;;67.82;46.88;;;18.70;99.90;;;;;;6339548;22;20005;-85
2022/10/31 11:59:32;;;;;;;67.22;46.13;;;18.80;99.90;;;;;;6339600;22;20066;-87
2022/10/31 12:02:00;;;;;;;69.53;46.80;;;18.80;99.90;;;;;;6338382;22;20308;-84
2022/10/31 12:04:33;;;;;;;75.43;50.08;;;18.70;99.90;;;;;;6312284;22;19995;-85
2022/10/31 12:06:59;;;;;;;67.10;45.80;;;18.70;99.90;;;;;;6311770;22;20487;-87
2022/10/31 12:09:34;;;;;;;68.38;45.55;;;18.70;99.90;;;;;;6339958;22;20026;-84
2022/10/31 12:12:09;;;;;;;76.00;47.90;;;18.70;99.90;;;;;;6339560;22;20465;-83
2022/10/31 12:14:57;;;;;;;73.22;49.67;;;18.60;99.90;;;;;;6311792;22;20006;-87
2022/10/31 12:17:29;;;;;;;74.65;50.50;;;18.40;99.90;;;;;;6311742;22;20086;-84
2022/10/31 12:20:10;;;;;;;96.93;55.70;;;18.40;99.90;;;;;;6339658;22;19991;-86
2022/10/31 12:22:52;;;;;;;84.33;52.13;;;18.50;99.90;;;;;;6340113;22;20005;-85
2022/10/31 12:25:21;;;;;;;98.90;58.97;;;18.40;99.90;;;;;;6312112;22;20215;-84
2022/10/31 12:28:33;;;;;;;82.97;52.70;;;18.30;99.90;;;;;;6338966;22;20099;-87
2022/10/31 12:30:58;;;;;;;78.50;49.05;;;18.30;99.90;;;;;;6309309;22;19999;-89
2022/10/31 12:33:45;;;;;;;75.97;48.45;;;18.30;99.90;;;;;;6309390;22;19997;-86
2022/10/31 12:36:30;;;;;;;75.18;51.25;;;18.30;99.90;;;;;;6310152;22;19991;-84
2022/10/31 12:39:30;;;;;;;79.95;48.65;;;18.40;99.90;;;;;;6310730;22;20414;-86